createdAt,value
2023-01-20T00:01:32.085Z,98.70
2023-01-20T00:04:59.084Z,246.70
2023-01-20T00:08:26.106Z,173.10
2023-01-20T00:11:53.253Z,154.90
2023-01-20T00:15:20.313Z,132.60
2023-01-20T00:18:47.321Z,125.30
2023-01-20T00:22:14.645Z,113.40
2023-01-20T00:25:41.625Z,103.40
2023-01-20T00:29:09.772Z,107.70
2023-01-20T00:32:44.757Z,111.30
2023-01-20T00:36:13.807Z,120.00
2023-01-20T00:39:40.779Z,128.80
2023-01-20T00:43:07.860Z,135.10
2023-01-20T00:46:34.952Z,139.50
2023-01-20T00:50:02.113Z,149.10
2023-01-20T00:53:29.356Z,140.60
2023-01-20T00:56:56.561Z,159.60
2023-01-20T01:00:24.212Z,163.70
2023-01-20T01:03:54.148Z,158.30
2023-01-20T01:07:21.547Z,159.00
2023-01-20T01:10:48.671Z,142.10
2023-01-20T01:14:15.648Z,128.30
2023-01-20T01:17:44.073Z,120.00
2023-01-20T01:21:14.787Z,116.30
2023-01-20T01:24:44.134Z,119.80
2023-01-20T01:28:11.158Z,117.50
2023-01-20T01:31:39.081Z,104.90
2023-01-20T01:35:06.721Z,108.80
2023-01-20T01:38:34.120Z,101.60
2023-01-20T01:42:01.113Z,101.00
2023-01-20T01:45:30.367Z,113.90
2023-01-20T01:48:59.523Z,103.60
2023-01-20T01:52:26.712Z,91.30
2023-01-20T01:55:58.699Z,106.30
2023-01-20T01:59:26.419Z,102.20
2023-01-20T02:02:54.723Z,111.50
2023-01-20T02:06:23.863Z,98.80
2023-01-20T02:09:51.183Z,91.30
2023-01-20T02:13:18.723Z,90.40
2023-01-20T02:16:58.453Z,92.10
2023-01-20T02:20:44.023Z,92.10
2023-01-20T02:24:50.397Z,86.20
2023-01-20T02:28:47.060Z,88.80
2023-01-20T02:32:38.356Z,88.50
2023-01-20T02:36:11.217Z,89.50
2023-01-20T02:39:45.013Z,94.70
2023-01-20T02:43:20.538Z,87.20
2023-01-20T02:46:53.477Z,90.20
2023-01-20T02:50:27.111Z,79.40
2023-01-20T02:53:57.567Z,87.20
2023-01-20T02:57:30.179Z,97.80
2023-01-20T03:01:02.274Z,94.10
2023-01-20T03:04:33.402Z,102.70
2023-01-20T03:08:03.593Z,89.90
2023-01-20T03:11:36.054Z,90.00
2023-01-20T03:15:03.697Z,91.90
2023-01-20T03:18:32.505Z,90.10
2023-01-20T03:22:00.383Z,87.60
2023-01-20T03:25:28.733Z,92.70
2023-01-20T03:28:56.572Z,92.70
2023-01-20T03:32:26.982Z,89.70
2023-01-20T03:35:55.477Z,95.30
2023-01-20T03:39:24.924Z,94.70
2023-01-20T03:43:00.214Z,97.40
2023-01-20T03:46:38.324Z,89.70
2023-01-20T03:50:11.399Z,93.40
2023-01-20T03:53:45.548Z,85.50
2023-01-20T03:57:16.421Z,94.10
2023-01-20T04:00:49.780Z,99.70
2023-01-20T04:04:20.454Z,91.00
2023-01-20T04:07:49.371Z,94.60
2023-01-20T04:11:16.830Z,101.60
2023-01-20T04:14:43.868Z,96.10
2023-01-20T04:18:19.281Z,107.50
2023-01-20T04:21:50.579Z,84.30
2023-01-20T04:25:25.695Z,102.20
2023-01-20T04:28:52.796Z,107.50
2023-01-20T04:32:20.027Z,101.50
2023-01-20T04:35:46.923Z,99.60
2023-01-20T04:39:13.947Z,94.10
2023-01-20T04:42:41.507Z,93.20
2023-01-20T04:46:08.583Z,101.80
2023-01-20T04:49:37.149Z,91.50
2023-01-20T04:53:04.097Z,87.80
2023-01-20T04:56:31.018Z,92.40
2023-01-20T04:59:57.927Z,98.60
2023-01-20T05:03:25.024Z,98.30
2023-01-20T05:06:52.175Z,97.40
2023-01-20T05:10:19.556Z,97.50
2023-01-20T05:13:46.654Z,95.20
2023-01-20T05:17:14.036Z,100.50
2023-01-20T05:20:41.077Z,102.00
2023-01-20T05:24:08.871Z,102.60
2023-01-20T05:27:37.062Z,93.00
2023-01-20T05:31:04.173Z,87.90
2023-01-20T05:34:31.215Z,83.50
2023-01-20T05:37:58.156Z,89.60
2023-01-20T05:41:25.182Z,89.30
2023-01-20T05:44:52.419Z,96.20
2023-01-20T05:48:19.369Z,89.00
2023-01-20T05:51:46.345Z,93.20
2023-01-20T05:55:14.292Z,86.80
2023-01-20T05:58:41.414Z,89.00
2023-01-20T06:02:08.481Z,87.20
2023-01-20T06:05:35.398Z,83.90
2023-01-20T06:09:02.403Z,89.20
2023-01-20T06:12:29.535Z,94.70
2023-01-20T06:15:57.112Z,81.00
2023-01-20T06:19:24.153Z,87.60
2023-01-20T06:22:55.463Z,86.30
2023-01-20T06:26:22.788Z,84.10
2023-01-20T06:29:51.022Z,89.00
2023-01-20T06:33:17.951Z,88.80
2023-01-20T06:36:45.310Z,79.60
2023-01-20T06:40:15.131Z,85.00
2023-01-20T06:43:42.421Z,80.20
2023-01-20T06:47:09.557Z,84.20
2023-01-20T06:50:36.480Z,88.00
2023-01-20T06:54:03.407Z,85.50
2023-01-20T06:57:30.835Z,86.50
2023-01-20T07:00:59.057Z,82.20
2023-01-20T07:04:26.121Z,76.70
2023-01-20T07:07:53.191Z,90.90
2023-01-20T07:11:20.463Z,80.20
2023-01-20T07:14:47.412Z,86.10
2023-01-20T07:18:14.510Z,79.60
2023-01-20T07:21:41.819Z,77.90
2023-01-20T07:25:10.376Z,79.00
2023-01-20T07:28:38.414Z,92.90
2023-01-20T07:32:05.812Z,85.30
2023-01-20T07:35:32.788Z,90.00
2023-01-20T07:38:59.772Z,85.50
2023-01-20T07:42:26.955Z,87.40
2023-01-20T07:45:57.671Z,83.40
2023-01-20T07:49:24.777Z,87.20
2023-01-20T07:52:51.928Z,87.10
2023-01-20T07:56:20.777Z,88.70
2023-01-20T07:59:48.138Z,83.60
2023-01-20T08:03:15.858Z,86.60
2023-01-20T08:06:42.972Z,80.60
2023-01-20T08:10:11.580Z,83.10
2023-01-20T08:13:39.551Z,86.50
2023-01-20T08:17:07.119Z,89.40
2023-01-20T08:20:34.059Z,101.00
2023-01-20T08:24:03.154Z,98.50
2023-01-20T08:27:30.181Z,104.00
2023-01-20T08:31:03.696Z,97.80
2023-01-20T08:34:31.164Z,97.30
2023-01-20T08:37:58.330Z,99.60
2023-01-20T08:41:28.238Z,100.90
2023-01-20T08:44:56.604Z,98.00
2023-01-20T08:48:23.544Z,101.60
2023-01-20T08:51:51.999Z,99.90
2023-01-20T08:55:19.287Z,95.00
2023-01-20T08:58:47.031Z,100.10
2023-01-20T09:02:14.319Z,98.90
2023-01-20T09:05:41.414Z,86.60
2023-01-20T09:09:08.456Z,91.80
2023-01-20T09:12:35.411Z,91.20
2023-01-20T09:16:04.222Z,83.50
2023-01-20T09:19:31.443Z,92.70
2023-01-20T09:23:01.765Z,95.40
2023-01-20T09:26:38.819Z,92.10
2023-01-20T09:30:07.629Z,87.60
2023-01-20T09:33:38.230Z,89.20
2023-01-20T09:37:19.455Z,85.70
2023-01-20T09:41:23.785Z,91.30
2023-01-20T09:44:57.176Z,80.90
2023-01-20T09:48:51.070Z,86.50
2023-01-20T09:52:45.307Z,85.90
2023-01-20T09:56:16.564Z,94.90
2023-01-20T09:59:51.068Z,98.30
2023-01-20T10:03:22.558Z,94.20
2023-01-20T10:06:53.296Z,97.60
2023-01-20T10:10:24.762Z,95.50
2023-01-20T10:13:57.390Z,97.30
2023-01-20T10:17:29.049Z,97.90
2023-01-20T10:21:02.354Z,89.30
2023-01-20T10:24:33.096Z,108.00
2023-01-20T10:28:08.137Z,97.90
2023-01-20T10:31:36.914Z,112.70
2023-01-20T10:35:11.504Z,92.50
2023-01-20T10:38:47.970Z,98.60
2023-01-20T10:42:17.262Z,100.90
2023-01-20T10:46:02.531Z,95.70
2023-01-20T10:49:46.762Z,101.50
2023-01-20T10:53:23.332Z,95.70
2023-01-20T10:56:54.645Z,107.90
2023-01-20T11:00:27.908Z,101.50
2023-01-20T11:03:54.997Z,102.10
2023-01-20T11:07:22.336Z,130.80
2023-01-20T11:10:53.065Z,168.90
2023-01-20T11:14:20.320Z,118.50
2023-01-20T11:17:47.385Z,101.70
2023-01-20T11:21:15.252Z,101.80
2023-01-20T11:24:46.650Z,98.80
2023-01-20T11:28:20.888Z,112.90
2023-01-20T11:31:52.613Z,86.40
2023-01-20T11:35:25.663Z,98.40
2023-01-20T11:38:55.214Z,110.90
2023-01-20T11:45:49.255Z,99.00
2023-01-20T11:49:22.104Z,88.80
2023-01-20T11:52:49.366Z,90.10
2023-01-20T11:56:23.814Z,93.10
2023-01-20T11:59:51.942Z,95.50
2023-01-20T12:03:34.000Z,94.00
2023-01-20T12:07:04.582Z,83.80
2023-01-20T12:10:35.546Z,102.20
2023-01-20T12:14:23.045Z,99.60
2023-01-20T12:17:57.296Z,108.30
2023-01-20T12:21:27.776Z,90.50
2023-01-20T12:25:09.088Z,132.70
2023-01-20T12:28:42.217Z,119.00
2023-01-20T12:32:10.792Z,116.10
2023-01-20T12:35:45.976Z,110.80
2023-01-20T12:39:25.915Z,118.60
2023-01-20T12:43:22.152Z,96.00
2023-01-20T12:46:53.686Z,93.10
2023-01-20T12:50:33.402Z,88.90
2023-01-20T12:54:16.726Z,119.90
2023-01-20T12:57:59.946Z,115.00
2023-01-20T13:01:45.544Z,111.20
2023-01-20T13:05:37.728Z,140.20
2023-01-20T13:09:19.256Z,113.00
2023-01-20T13:12:55.903Z,118.10
2023-01-20T13:16:30.694Z,121.80
2023-01-20T13:20:02.748Z,123.10
2023-01-20T13:23:33.298Z,160.90
2023-01-20T13:27:02.740Z,114.40
2023-01-20T13:30:45.008Z,116.00
2023-01-20T13:34:40.649Z,145.30
2023-01-20T13:38:18.267Z,118.30
2023-01-20T13:41:53.109Z,151.20
2023-01-20T13:45:24.534Z,127.50
2023-01-20T13:49:16.175Z,169.20
2023-01-20T13:53:08.296Z,163.90
2023-01-20T13:56:38.006Z,152.50
2023-01-20T14:00:12.423Z,150.40
2023-01-20T14:03:41.001Z,153.70
2023-01-20T14:07:22.535Z,175.90
2023-01-20T14:10:50.056Z,174.80
2023-01-20T14:14:22.501Z,129.60
2023-01-20T14:17:56.070Z,145.30
2023-01-20T14:21:24.962Z,133.60
2023-01-20T14:24:53.785Z,150.30
2023-01-20T14:28:22.279Z,165.00
2023-01-20T14:31:49.604Z,161.80
2023-01-20T14:35:21.031Z,102.10
2023-01-20T14:38:57.738Z,145.90
2023-01-20T14:42:26.958Z,147.10
2023-01-20T14:45:55.473Z,132.40
2023-01-20T14:49:25.580Z,130.60
2023-01-20T14:52:52.921Z,144.70
2023-01-20T14:56:22.783Z,139.50
2023-01-20T15:00:00.456Z,152.90
2023-01-20T15:03:29.550Z,141.80
2023-01-20T15:06:59.190Z,144.60
2023-01-20T15:10:26.271Z,147.60
2023-01-20T15:14:13.643Z,134.80
2023-01-20T15:18:04.017Z,135.90
2023-01-20T15:21:31.133Z,156.30
2023-01-20T15:25:06.100Z,142.20
2023-01-20T15:28:33.111Z,167.60
2023-01-20T15:32:02.570Z,165.40
2023-01-20T15:38:55.516Z,95.80
2023-01-20T15:42:23.988Z,172.00
2023-01-20T15:45:51.231Z,149.70
2023-01-20T15:49:18.806Z,147.20
2023-01-20T15:52:46.026Z,149.60
2023-01-20T15:56:19.857Z,175.00
2023-01-20T15:59:49.832Z,157.40
2023-01-20T16:03:17.081Z,157.40
2023-01-20T16:06:45.509Z,141.50
2023-01-20T16:10:17.620Z,114.80
2023-01-20T16:13:45.494Z,124.00
2023-01-20T16:17:20.859Z,107.60
2023-01-20T16:20:50.585Z,108.10
2023-01-20T16:24:17.765Z,186.00
2023-01-20T16:27:44.742Z,165.70
2023-01-20T16:31:14.700Z,156.20
2023-01-20T16:34:42.614Z,163.60
2023-01-20T16:38:10.732Z,248.90
2023-01-20T16:41:39.083Z,116.40
2023-01-20T16:45:07.480Z,192.60
2023-01-20T16:48:34.423Z,242.20
2023-01-20T16:52:01.744Z,199.50
2023-01-20T16:55:28.695Z,169.40
2023-01-20T16:58:58.380Z,144.50
2023-01-20T17:02:25.427Z,177.40
2023-01-20T17:05:52.731Z,137.60
2023-01-20T17:09:19.794Z,189.60
2023-01-20T17:12:48.896Z,147.30
2023-01-20T17:16:16.891Z,165.10
2023-01-20T17:19:43.886Z,196.30
2023-01-20T17:23:11.353Z,214.40
2023-01-20T17:26:38.680Z,200.10
2023-01-20T17:30:08.619Z,139.40
2023-01-20T17:33:35.659Z,249.60
2023-01-20T17:37:02.803Z,179.60
2023-01-20T17:40:31.406Z,142.00
2023-01-20T17:43:59.006Z,139.30
2023-01-20T17:47:26.395Z,136.20
2023-01-20T17:50:59.036Z,118.40
2023-01-20T17:54:26.442Z,116.80
2023-01-20T17:57:54.213Z,104.80
2023-01-20T18:01:23.437Z,94.40
2023-01-20T18:08:16.361Z,124.20
2023-01-20T18:11:44.177Z,98.40
2023-01-20T18:15:12.783Z,116.70
2023-01-20T18:18:40.696Z,120.50
2023-01-20T18:22:10.369Z,138.60
2023-01-20T18:25:37.681Z,145.50
2023-01-20T18:29:06.821Z,158.50
2023-01-20T18:32:34.011Z,107.80
2023-01-20T18:36:03.458Z,106.80
2023-01-20T18:42:56.992Z,98.30
2023-01-20T18:46:24.725Z,150.00
2023-01-20T18:49:52.775Z,115.40
2023-01-20T18:53:20.863Z,127.10
2023-01-20T18:56:49.875Z,106.20
2023-01-20T19:00:20.159Z,97.60
2023-01-20T19:03:50.397Z,94.70
2023-01-20T19:07:18.862Z,77.90
2023-01-20T19:10:48.090Z,110.40
2023-01-20T19:17:44.757Z,103.40
2023-01-20T19:24:43.115Z,79.60
2023-01-20T19:28:14.411Z,96.00
2023-01-20T19:31:44.093Z,137.00
2023-01-20T19:35:14.264Z,117.90
2023-01-20T19:38:43.975Z,127.10
2023-01-20T19:42:13.066Z,110.40
2023-01-20T19:45:46.348Z,76.50
2023-01-20T19:49:15.800Z,86.80
2023-01-20T19:56:15.242Z,82.40
2023-01-20T19:59:44.407Z,115.60
2023-01-20T20:03:13.845Z,83.00
2023-01-20T20:10:14.993Z,63.40
2023-01-20T20:13:44.556Z,62.70
2023-01-20T20:17:14.589Z,79.30
2023-01-20T20:20:43.544Z,63.20
2023-01-20T20:24:15.071Z,97.10
2023-01-20T20:27:44.112Z,77.60
2023-01-20T20:31:14.397Z,80.40
2023-01-20T20:34:43.598Z,91.90
2023-01-20T20:38:12.995Z,86.40
2023-01-20T20:41:43.036Z,57.40
2023-01-20T20:45:13.937Z,73.10
2023-01-20T20:48:43.478Z,68.10
2023-01-20T20:55:43.458Z,57.30
2023-01-20T20:59:13.058Z,87.30
2023-01-20T21:02:43.241Z,96.50
2023-01-20T21:06:13.396Z,104.70
2023-01-20T21:09:42.990Z,108.70
2023-01-20T21:16:40.124Z,79.40
2023-01-20T21:20:11.181Z,45.70
2023-01-20T21:23:41.778Z,71.10
2023-01-20T21:27:10.960Z,41.40
2023-01-20T21:30:41.277Z,50.90
2023-01-20T21:34:14.278Z,47.00
2023-01-20T21:37:43.517Z,46.30
2023-01-20T21:41:14.116Z,43.70
2023-01-20T21:44:44.111Z,46.90
2023-01-20T21:48:26.600Z,48.60
2023-01-20T21:52:12.909Z,40.50
2023-01-20T21:55:42.860Z,36.80
2023-01-20T21:59:12.168Z,35.20
2023-01-20T22:02:41.431Z,38.20
2023-01-20T22:06:10.600Z,50.70
2023-01-20T22:09:38.375Z,42.10
2023-01-20T22:13:07.101Z,56.50
2023-01-20T22:16:34.763Z,48.50
2023-01-20T22:20:02.784Z,38.70
2023-01-20T22:23:30.276Z,41.60
2023-01-20T22:26:58.007Z,62.90
2023-01-20T22:30:25.044Z,58.30
2023-01-20T22:33:54.164Z,39.10
2023-01-20T22:37:21.241Z,63.70
2023-01-20T22:40:48.145Z,52.50
2023-01-20T22:44:15.663Z,63.50
2023-01-20T22:47:42.687Z,59.70
2023-01-20T22:51:13.039Z,57.90
2023-01-20T22:54:40.015Z,50.80
2023-01-20T22:58:06.937Z,49.00
2023-01-20T23:01:36.695Z,66.10
2023-01-20T23:05:03.659Z,67.60
2023-01-20T23:08:32.020Z,57.60
2023-01-20T23:11:59.025Z,50.90
2023-01-20T23:15:26.379Z,54.40
2023-01-20T23:18:53.817Z,44.00
2023-01-20T23:22:20.774Z,43.90
2023-01-20T23:25:48.220Z,75.00
2023-01-20T23:29:15.411Z,56.60
2023-01-20T23:32:43.083Z,53.60
2023-01-20T23:36:13.053Z,61.60
2023-01-20T23:39:40.000Z,50.50
2023-01-20T23:43:06.887Z,53.50
2023-01-20T23:46:33.667Z,39.60
2023-01-20T23:50:00.728Z,40.70
2023-01-20T23:53:29.331Z,71.20
2023-01-20T23:56:56.295Z,48.70
